Time;durP1;ratioP1;P1;durP2;ratioP2;P2;SDS_P1;SDS_P2;PMS_P1;PMS_P2;Temp;Humidity;BMP_temperature;BMP_pressure;BME280_temperature;BME280_humidity;BME280_pressure;Samples;Min_cycle;Max_cycle;Signal;HPM_P1;HPM_P2
2023/10/31 00:02:16;;;;;;;0.00;0.00;;;;;;;;;;4988737;28;20054;-66
2023/10/31 00:04:42;;;;;;;0.00;0.00;;;;;;;;;;4991562;28;20746;-66
2023/10/31 00:07:08;;;;;;;0.00;0.00;;;;;;;;;;4981002;28;20112;-66
2023/10/31 00:09:34;;;;;;;0.00;0.00;;;;;;;;;;4981318;28;20058;-66
2023/10/31 00:12:00;;;;;;;0.00;0.00;;;;;;;;;;4978768;28;20038;-66
2023/10/31 00:14:26;;;;;;;0.00;0.00;;;;;;;;;;4985035;28;20101;-66
2023/10/31 00:16:53;;;;;;;0.00;0.00;;;;;;;;;;4984922;28;20053;-66
2023/10/31 00:19:19;;;;;;;0.00;0.00;;;;;;;;;;4986126;28;20177;-66
2023/10/31 00:21:45;;;;;;;0.00;0.00;;;;;;;;;;4982191;28;20062;-66
2023/10/31 00:24:11;;;;;;;0.00;0.00;;;;;;;;;;4979484;28;20065;-66
2023/10/31 00:26:37;;;;;;;0.00;0.00;;;;;;;;;;4978711;28;20475;-66
2023/10/31 00:29:03;;;;;;;0.00;0.00;;;;;;;;;;4977137;28;21308;-64
2023/10/31 00:31:29;;;;;;;0.00;0.00;;;;;;;;;;4987156;28;20092;-65
2023/10/31 00:33:55;;;;;;;0.00;0.00;;;;;;;;;;4983188;28;20122;-65
2023/10/31 00:36:24;;;;;;;0.00;0.00;;;;;;;;;;4978421;28;20034;-66
2023/10/31 00:38:51;;;;;;;0.00;0.00;;;;;;;;;;4972144;28;20027;-66
2023/10/31 00:41:17;;;;;;;0.00;0.00;;;;;;;;;;4985490;28;20042;-66
2023/10/31 00:43:43;;;;;;;0.00;0.00;;;;;;;;;;4977267;28;20568;-66
2023/10/31 00:46:08;;;;;;;0.00;0.00;;;;;;;;;;4982167;28;20034;-66
2023/10/31 00:48:36;;;;;;;0.00;0.00;;;;;;;;;;4943066;28;20113;-66
2023/10/31 00:51:05;;;;;;;0.00;0.00;;;;;;;;;;4979182;28;20122;-66
2023/10/31 00:53:32;;;;;;;0.00;0.00;;;;;;;;;;4981967;28;20117;-67
2023/10/31 00:55:58;;;;;;;0.00;0.00;;;;;;;;;;4976318;28;20069;-66
2023/10/31 00:58:24;;;;;;;0.00;0.00;;;;;;;;;;4984939;28;20038;-67
2023/10/31 01:00:50;;;;;;;0.00;0.00;;;;;;;;;;4977776;28;20107;-66
2023/10/31 01:03:16;;;;;;;0.00;0.00;;;;;;;;;;4971502;28;20502;-66
2023/10/31 01:05:42;;;;;;;0.00;0.00;;;;;;;;;;4993834;28;20038;-66
2023/10/31 01:08:08;;;;;;;0.00;0.00;;;;;;;;;;4969550;28;20374;-66
2023/10/31 01:10:34;;;;;;;0.00;0.00;;;;;;;;;;5000776;28;20042;-67
2023/10/31 01:13:00;;;;;;;0.00;0.00;;;;;;;;;;4977684;28;20046;-66
2023/10/31 01:15:25;;;;;;;0.00;0.00;;;;;;;;;;4981416;28;20128;-67
2023/10/31 01:17:51;;;;;;;0.00;0.00;;;;;;;;;;4982942;28;20458;-66
2023/10/31 01:20:17;;;;;;;0.00;0.00;;;;;;;;;;4979906;28;20458;-67
2023/10/31 01:22:43;;;;;;;0.00;0.00;;;;;;;;;;4978401;28;20424;-67
2023/10/31 01:25:10;;;;;;;0.00;0.00;;;;;;;;;;4959459;28;20045;-66
2023/10/31 01:27:55;;;;;;;0.00;0.00;;;;;;;;;;4979420;28;20080;-67
2023/10/31 01:30:21;;;;;;;0.00;0.00;;;;;;;;;;4971448;28;20145;-66
2023/10/31 01:32:47;;;;;;;0.00;0.00;;;;;;;;;;4982591;28;20485;-66
2023/10/31 01:35:13;;;;;;;0.00;0.00;;;;;;;;;;4985321;28;20136;-67
2023/10/31 01:37:39;;;;;;;0.00;0.00;;;;;;;;;;4976709;28;20039;-67
2023/10/31 01:40:07;;;;;;;0.00;0.00;;;;;;;;;;4977974;28;20830;-66
2023/10/31 01:42:33;;;;;;;0.00;0.00;;;;;;;;;;4961392;28;20038;-66
2023/10/31 01:44:59;;;;;;;0.00;0.00;;;;;;;;;;4976251;28;20145;-66
2023/10/31 01:47:25;;;;;;;0.00;0.00;;;;;;;;;;4981043;28;20038;-65
2023/10/31 01:49:52;;;;;;;0.00;0.00;;;;;;;;;;4984677;28;20107;-67
2023/10/31 01:52:18;;;;;;;0.00;0.00;;;;;;;;;;4984713;28;20050;-66
2023/10/31 01:54:45;;;;;;;0.00;0.00;;;;;;;;;;4975164;28;20046;-66
2023/10/31 01:57:11;;;;;;;0.00;0.00;;;;;;;;;;4977099;28;20042;-65
2023/10/31 01:59:37;;;;;;;0.00;0.00;;;;;;;;;;4974327;28;20468;-65
2023/10/31 02:02:04;;;;;;;0.00;0.00;;;;;;;;;;4985132;28;20038;-65
2023/10/31 02:04:30;;;;;;;0.00;0.00;;;;;;;;;;4972687;28;20038;-65
2023/10/31 02:06:56;;;;;;;0.00;0.00;;;;;;;;;;4989822;28;20073;-65
2023/10/31 02:09:24;;;;;;;0.00;0.00;;;;;;;;;;4989099;28;20577;-65
2023/10/31 02:11:50;;;;;;;0.00;0.00;;;;;;;;;;4984879;28;20034;-65
2023/10/31 02:14:16;;;;;;;0.00;0.00;;;;;;;;;;4982237;28;20042;-65
2023/10/31 02:16:42;;;;;;;0.00;0.00;;;;;;;;;;4985101;28;20035;-66
2023/10/31 02:19:09;;;;;;;0.00;0.00;;;;;;;;;;4982556;28;20045;-65
2023/10/31 02:21:35;;;;;;;0.00;0.00;;;;;;;;;;4984513;28;20030;-65
2023/10/31 02:24:02;;;;;;;0.00;0.00;;;;;;;;;;4972142;28;20514;-65
2023/10/31 02:26:31;;;;;;;0.00;0.00;;;;;;;;;;5004558;28;20034;-65
2023/10/31 02:28:57;;;;;;;0.00;0.00;;;;;;;;;;5005968;28;20402;-65
2023/10/31 02:31:24;;;;;;;0.00;0.00;;;;;;;;;;5009810;28;20030;-65
2023/10/31 02:33:49;;;;;;;0.00;0.00;;;;;;;;;;5018250;28;20036;-66
2023/10/31 02:36:15;;;;;;;0.00;0.00;;;;;;;;;;5007620;28;20049;-65
2023/10/31 02:38:41;;;;;;;0.00;0.00;;;;;;;;;;5012376;28;20030;-65
2023/10/31 02:41:07;;;;;;;0.00;0.00;;;;;;;;;;5006092;28;20269;-65
2023/10/31 02:43:34;;;;;;;0.00;0.00;;;;;;;;;;5006365;28;20034;-65
2023/10/31 02:46:00;;;;;;;0.00;0.00;;;;;;;;;;5011032;28;20041;-65
2023/10/31 02:48:26;;;;;;;0.00;0.00;;;;;;;;;;5019119;28;20038;-65
2023/10/31 02:50:53;;;;;;;0.00;0.00;;;;;;;;;;5013451;28;20065;-65
2023/10/31 02:53:19;;;;;;;0.00;0.00;;;;;;;;;;5014354;28;20037;-65
2023/10/31 02:55:45;;;;;;;0.00;0.00;;;;;;;;;;5004486;28;20502;-65
2023/10/31 02:58:11;;;;;;;0.00;0.00;;;;;;;;;;5004467;28;20411;-65
2023/10/31 03:00:37;;;;;;;0.00;0.00;;;;;;;;;;5005675;28;20531;-65
2023/10/31 03:03:04;;;;;;;0.00;0.00;;;;;;;;;;5007634;28;20124;-65
2023/10/31 03:05:30;;;;;;;0.00;0.00;;;;;;;;;;5010257;28;20033;-65
2023/10/31 03:07:56;;;;;;;0.00;0.00;;;;;;;;;;5018513;28;20026;-65
2023/10/31 03:10:22;;;;;;;0.00;0.00;;;;;;;;;;5008998;28;20560;-65
2023/10/31 03:12:48;;;;;;;0.00;0.00;;;;;;;;;;5002428;28;20074;-65
2023/10/31 03:15:14;;;;;;;0.00;0.00;;;;;;;;;;5003587;28;20054;-65
2023/10/31 03:17:40;;;;;;;0.00;0.00;;;;;;;;;;5018513;28;20084;-66
2023/10/31 03:20:06;;;;;;;0.00;0.00;;;;;;;;;;5004198;28;20548;-66
2023/10/31 03:22:32;;;;;;;0.00;0.00;;;;;;;;;;5008336;28;20038;-66
2023/10/31 03:24:58;;;;;;;0.00;0.00;;;;;;;;;;5011129;28;20083;-66
2023/10/31 03:27:24;;;;;;;0.00;0.00;;;;;;;;;;5003507;28;20037;-66
2023/10/31 03:29:50;;;;;;;0.00;0.00;;;;;;;;;;4998286;28;20038;-68
2023/10/31 03:32:16;;;;;;;0.00;0.00;;;;;;;;;;5004633;28;20073;-68
2023/10/31 03:34:42;;;;;;;0.00;0.00;;;;;;;;;;5017121;28;20128;-68
2023/10/31 03:37:08;;;;;;;0.00;0.00;;;;;;;;;;5001698;28;20580;-68
2023/10/31 03:39:34;;;;;;;0.00;0.00;;;;;;;;;;5007194;28;20038;-68
2023/10/31 03:42:00;;;;;;;0.00;0.00;;;;;;;;;;4989667;28;20449;-68
2023/10/31 03:44:26;;;;;;;0.00;0.00;;;;;;;;;;4992706;28;20073;-68
2023/10/31 03:46:52;;;;;;;0.00;0.00;;;;;;;;;;4986201;28;20078;-68
2023/10/31 03:49:18;;;;;;;0.00;0.00;;;;;;;;;;4982858;28;20074;-68
2023/10/31 03:51:44;;;;;;;0.00;0.00;;;;;;;;;;4985409;28;20118;-68
2023/10/31 03:54:10;;;;;;;0.00;0.00;;;;;;;;;;4981429;28;20049;-67
2023/10/31 03:56:43;;;;;;;0.00;0.00;;;;;;;;;;4982373;28;20038;-67
2023/10/31 03:59:09;;;;;;;0.00;0.00;;;;;;;;;;4981910;28;20032;-67
2023/10/31 04:01:35;;;;;;;0.00;0.00;;;;;;;;;;4984863;28;20121;-67
2023/10/31 04:04:02;;;;;;;0.00;0.00;;;;;;;;;;4984269;28;20121;-66
2023/10/31 04:06:28;;;;;;;0.00;0.00;;;;;;;;;;4999039;28;20617;-66
2023/10/31 04:08:54;;;;;;;0.00;0.00;;;;;;;;;;4996554;28;20124;-66
2023/10/31 04:11:20;;;;;;;0.00;0.00;;;;;;;;;;4990543;28;20050;-67
2023/10/31 04:13:46;;;;;;;0.00;0.00;;;;;;;;;;4989192;28;20072;-66
2023/10/31 04:16:12;;;;;;;0.00;0.00;;;;;;;;;;4986463;28;20141;-66
2023/10/31 04:18:38;;;;;;;0.00;0.00;;;;;;;;;;4983309;28;20045;-68
2023/10/31 04:21:04;;;;;;;0.00;0.00;;;;;;;;;;5002753;28;20038;-68
2023/10/31 04:23:30;;;;;;;0.00;0.00;;;;;;;;;;4987153;28;20092;-68
2023/10/31 04:25:56;;;;;;;0.00;0.00;;;;;;;;;;4994799;28;20413;-67
2023/10/31 04:28:22;;;;;;;0.00;0.00;;;;;;;;;;4993082;28;20050;-67
2023/10/31 04:30:48;;;;;;;0.00;0.00;;;;;;;;;;4977362;28;20608;-66
2023/10/31 04:33:14;;;;;;;0.00;0.00;;;;;;;;;;4989502;28;20080;-65
2023/10/31 04:35:40;;;;;;;0.00;0.00;;;;;;;;;;4999671;28;20046;-66
2023/10/31 04:38:06;;;;;;;0.00;0.00;;;;;;;;;;4992989;28;20042;-66
2023/10/31 04:40:32;;;;;;;0.00;0.00;;;;;;;;;;4982889;28;20375;-66
2023/10/31 04:42:58;;;;;;;0.00;0.00;;;;;;;;;;4986521;28;20112;-66
2023/10/31 04:45:24;;;;;;;0.00;0.00;;;;;;;;;;4983671;28;20046;-66
2023/10/31 04:47:50;;;;;;;0.00;0.00;;;;;;;;;;4983926;28;20046;-66
2023/10/31 04:50:16;;;;;;;0.00;0.00;;;;;;;;;;4972207;28;20147;-66
2023/10/31 04:52:42;;;;;;;0.00;0.00;;;;;;;;;;4984112;28;20751;-66
2023/10/31 04:55:08;;;;;;;0.00;0.00;;;;;;;;;;4997373;28;20077;-66
2023/10/31 04:57:34;;;;;;;0.00;0.00;;;;;;;;;;4982805;28;20042;-66
2023/10/31 05:00:00;;;;;;;0.00;0.00;;;;;;;;;;4984225;28;20042;-66
2023/10/31 05:02:26;;;;;;;0.00;0.00;;;;;;;;;;4983866;28;20050;-66
2023/10/31 05:04:52;;;;;;;0.00;0.00;;;;;;;;;;4992145;28;20493;-66
2023/10/31 05:07:18;;;;;;;0.00;0.00;;;;;;;;;;4981298;28;20089;-66
2023/10/31 05:09:44;;;;;;;0.00;0.00;;;;;;;;;;4992268;28;20586;-66
2023/10/31 05:12:10;;;;;;;0.00;0.00;;;;;;;;;;4985112;28;20137;-66
2023/10/31 05:14:36;;;;;;;0.00;0.00;;;;;;;;;;4991245;28;20042;-66
2023/10/31 05:17:02;;;;;;;0.00;0.00;;;;;;;;;;4990469;28;20502;-66
2023/10/31 05:19:28;;;;;;;0.00;0.00;;;;;;;;;;4983324;28;20068;-66
2023/10/31 05:21:54;;;;;;;0.00;0.00;;;;;;;;;;4991650;28;20648;-66
2023/10/31 05:24:20;;;;;;;0.00;0.00;;;;;;;;;;4982311;28;20141;-66
2023/10/31 05:26:46;;;;;;;0.00;0.00;;;;;;;;;;5000257;28;20134;-66
2023/10/31 05:29:12;;;;;;;0.00;0.00;;;;;;;;;;4982946;28;20410;-66
2023/10/31 05:31:38;;;;;;;0.00;0.00;;;;;;;;;;4982824;28;20043;-66
2023/10/31 05:34:04;;;;;;;0.00;0.00;;;;;;;;;;4980121;28;20045;-66
2023/10/31 05:36:31;;;;;;;0.00;0.00;;;;;;;;;;4982474;28;20042;-66
2023/10/31 05:38:57;;;;;;;0.00;0.00;;;;;;;;;;4980441;28;20631;-66
2023/10/31 05:41:23;;;;;;;0.00;0.00;;;;;;;;;;4980367;28;20122;-66
2023/10/31 05:43:49;;;;;;;0.00;0.00;;;;;;;;;;4983660;28;20034;-66
2023/10/31 05:46:15;;;;;;;0.00;0.00;;;;;;;;;;4983688;28;20038;-66
2023/10/31 05:48:45;;;;;;;0.00;0.00;;;;;;;;;;4985342;28;20038;-66
2023/10/31 05:51:12;;;;;;;0.00;0.00;;;;;;;;;;4981677;28;20030;-66
2023/10/31 05:53:38;;;;;;;0.00;0.00;;;;;;;;;;4985104;28;20041;-66
2023/10/31 05:56:04;;;;;;;0.00;0.00;;;;;;;;;;4991913;28;20038;-66
2023/10/31 05:58:30;;;;;;;0.00;0.00;;;;;;;;;;4987951;28;20038;-66
2023/10/31 06:00:56;;;;;;;0.00;0.00;;;;;;;;;;4986207;28;20215;-66
2023/10/31 06:03:22;;;;;;;0.00;0.00;;;;;;;;;;4988275;28;20077;-66
2023/10/31 06:05:48;;;;;;;0.00;0.00;;;;;;;;;;5003495;28;20034;-65
2023/10/31 06:08:14;;;;;;;0.00;0.00;;;;;;;;;;4982322;28;20525;-66
2023/10/31 06:10:40;;;;;;;0.00;0.00;;;;;;;;;;4985093;28;20105;-66
2023/10/31 06:13:06;;;;;;;0.00;0.00;;;;;;;;;;4984825;28;20486;-66
2023/10/31 06:15:32;;;;;;;0.00;0.00;;;;;;;;;;4992233;28;20038;-66
2023/10/31 06:17:58;;;;;;;0.00;0.00;;;;;;;;;;4986524;28;20049;-66
2023/10/31 06:20:24;;;;;;;0.00;0.00;;;;;;;;;;4989859;28;20467;-66
2023/10/31 06:22:50;;;;;;;0.00;0.00;;;;;;;;;;4985957;28;20058;-66
2023/10/31 06:25:16;;;;;;;0.00;0.00;;;;;;;;;;4985175;28;20379;-66
2023/10/31 06:27:42;;;;;;;0.00;0.00;;;;;;;;;;4983717;28;20421;-66
2023/10/31 06:30:08;;;;;;;0.00;0.00;;;;;;;;;;4979880;28;20038;-66
2023/10/31 06:32:34;;;;;;;0.00;0.00;;;;;;;;;;4990715;28;20131;-66
2023/10/31 06:35:00;;;;;;;0.00;0.00;;;;;;;;;;4992917;28;20034;-66
2023/10/31 06:37:26;;;;;;;0.00;0.00;;;;;;;;;;4997263;28;20117;-66
2023/10/31 06:39:52;;;;;;;0.00;0.00;;;;;;;;;;4983628;28;20522;-65
2023/10/31 06:42:18;;;;;;;0.00;0.00;;;;;;;;;;4982639;28;20034;-66
2023/10/31 06:44:44;;;;;;;0.00;0.00;;;;;;;;;;4985050;28;20066;-66
2023/10/31 06:47:10;;;;;;;0.00;0.00;;;;;;;;;;4985689;28;20066;-66
2023/10/31 06:49:36;;;;;;;0.00;0.00;;;;;;;;;;4987642;28;20053;-66
2023/10/31 06:52:03;;;;;;;0.00;0.00;;;;;;;;;;4984274;28;20473;-66
2023/10/31 06:54:29;;;;;;;0.00;0.00;;;;;;;;;;4986308;28;20045;-66
2023/10/31 06:56:54;;;;;;;0.00;0.00;;;;;;;;;;4983640;28;20394;-66
2023/10/31 06:59:20;;;;;;;0.00;0.00;;;;;;;;;;4984970;28;20042;-66
2023/10/31 07:01:46;;;;;;;0.00;0.00;;;;;;;;;;4987107;28;20061;-66
2023/10/31 07:04:13;;;;;;;0.00;0.00;;;;;;;;;;4979598;28;20267;-66
2023/10/31 07:06:39;;;;;;;0.00;0.00;;;;;;;;;;4983933;28;20490;-68
2023/10/31 07:09:05;;;;;;;0.00;0.00;;;;;;;;;;4989014;28;20030;-68
2023/10/31 07:11:33;;;;;;;0.00;0.00;;;;;;;;;;4984482;28;20561;-69
2023/10/31 07:14:02;;;;;;;0.00;0.00;;;;;;;;;;4981689;28;20038;-68
2023/10/31 07:16:28;;;;;;;0.00;0.00;;;;;;;;;;4988169;28;20201;-69
2023/10/31 07:18:54;;;;;;;0.00;0.00;;;;;;;;;;4983846;28;20561;-69
2023/10/31 07:21:20;;;;;;;0.00;0.00;;;;;;;;;;4980146;28;20521;-69
2023/10/31 07:23:46;;;;;;;0.00;0.00;;;;;;;;;;4983476;28;20363;-68
2023/10/31 07:26:12;;;;;;;0.00;0.00;;;;;;;;;;4998465;28;20486;-68
2023/10/31 07:28:38;;;;;;;0.00;0.00;;;;;;;;;;4980629;28;20042;-68
2023/10/31 07:31:04;;;;;;;0.00;0.00;;;;;;;;;;4979842;28;20034;-68
2023/10/31 07:33:30;;;;;;;0.00;0.00;;;;;;;;;;4984604;28;20979;-69
2023/10/31 07:35:56;;;;;;;0.00;0.00;;;;;;;;;;4978344;28;20049;-68
2023/10/31 07:38:22;;;;;;;0.00;0.00;;;;;;;;;;4980619;28;20046;-68
2023/10/31 07:40:49;;;;;;;0.00;0.00;;;;;;;;;;4981804;28;20035;-69
2023/10/31 07:43:16;;;;;;;0.00;0.00;;;;;;;;;;4980799;28;20498;-69
2023/10/31 07:45:42;;;;;;;0.00;0.00;;;;;;;;;;4981561;28;20058;-69
2023/10/31 07:48:08;;;;;;;0.00;0.00;;;;;;;;;;4981771;28;20097;-68
2023/10/31 07:50:34;;;;;;;0.00;0.00;;;;;;;;;;4995795;28;20056;-68
2023/10/31 07:53:00;;;;;;;0.00;0.00;;;;;;;;;;4985732;28;20038;-68
2023/10/31 07:55:26;;;;;;;0.00;0.00;;;;;;;;;;4980823;28;20046;-68
2023/10/31 07:57:53;;;;;;;0.00;0.00;;;;;;;;;;4984652;28;20065;-69
2023/10/31 08:00:19;;;;;;;0.00;0.00;;;;;;;;;;4983275;28;20042;-68
2023/10/31 08:02:45;;;;;;;0.00;0.00;;;;;;;;;;4982450;28;20040;-68
2023/10/31 08:05:11;;;;;;;0.00;0.00;;;;;;;;;;4979833;28;20568;-68
2023/10/31 08:07:37;;;;;;;0.00;0.00;;;;;;;;;;4981734;28;20453;-68
2023/10/31 08:10:06;;;;;;;0.00;0.00;;;;;;;;;;4978680;28;20142;-68
2023/10/31 08:12:32;;;;;;;0.00;0.00;;;;;;;;;;4983000;28;20454;-68
2023/10/31 08:14:59;;;;;;;0.00;0.00;;;;;;;;;;4982555;28;20056;-69
2023/10/31 08:17:26;;;;;;;0.00;0.00;;;;;;;;;;4982772;28;20112;-68
2023/10/31 08:19:52;;;;;;;0.00;0.00;;;;;;;;;;4983721;28;20117;-68
2023/10/31 08:22:18;;;;;;;0.00;0.00;;;;;;;;;;4982959;28;20289;-68
2023/10/31 08:24:44;;;;;;;0.00;0.00;;;;;;;;;;4982336;28;20034;-68
2023/10/31 08:27:10;;;;;;;0.00;0.00;;;;;;;;;;4983308;28;20140;-68
2023/10/31 08:29:36;;;;;;;0.00;0.00;;;;;;;;;;4981765;28;20111;-69
2023/10/31 08:32:02;;;;;;;0.00;0.00;;;;;;;;;;4980641;28;20072;-68
2023/10/31 08:34:28;;;;;;;0.00;0.00;;;;;;;;;;4983339;28;20746;-69
2023/10/31 08:36:56;;;;;;;0.00;0.00;;;;;;;;;;4982660;28;20362;-69
2023/10/31 08:39:22;;;;;;;0.00;0.00;;;;;;;;;;4996780;28;20468;-69
2023/10/31 08:41:52;;;;;;;0.00;0.00;;;;;;;;;;4982047;28;20065;-69
2023/10/31 08:44:18;;;;;;;0.00;0.00;;;;;;;;;;4980253;28;20042;-67
2023/10/31 08:46:51;;;;;;;0.00;0.00;;;;;;;;;;5097143;27;20973;-66
2023/10/31 08:49:17;;;;;;;0.00;0.00;;;;;;;;;;5086198;27;20082;-69
2023/10/31 08:51:44;;;;;;;0.00;0.00;;;;;;;;;;5098822;27;20319;-69
2023/10/31 08:54:11;;;;;;;0.00;0.00;;;;;;;;;;5081513;27;20035;-69
2023/10/31 08:56:37;;;;;;;0.00;0.00;;;;;;;;;;5076773;28;20209;-68
2023/10/31 08:59:03;;;;;;;0.00;0.00;;;;;;;;;;5085506;27;20158;-68
2023/10/31 09:01:29;;;;;;;0.00;0.00;;;;;;;;;;5079222;27;20059;-68
2023/10/31 09:03:55;;;;;;;0.00;0.00;;;;;;;;;;5068382;27;20036;-68
2023/10/31 09:06:21;;;;;;;0.00;0.00;;;;;;;;;;5070352;28;20056;-68
2023/10/31 09:08:47;;;;;;;0.00;0.00;;;;;;;;;;5075260;28;20046;-68
2023/10/31 09:11:13;;;;;;;0.00;0.00;;;;;;;;;;5071409;28;20032;-69
2023/10/31 09:13:39;;;;;;;0.00;0.00;;;;;;;;;;5073982;28;20044;-68
2023/10/31 09:16:06;;;;;;;0.00;0.00;;;;;;;;;;5077197;28;20097;-68
2023/10/31 09:18:32;;;;;;;0.00;0.00;;;;;;;;;;5072973;27;20442;-68
2023/10/31 09:20:58;;;;;;;0.00;0.00;;;;;;;;;;5070181;28;20040;-68
2023/10/31 09:23:24;;;;;;;0.00;0.00;;;;;;;;;;5075551;28;20040;-68
2023/10/31 09:25:50;;;;;;;0.00;0.00;;;;;;;;;;5072536;28;20102;-66
2023/10/31 09:28:16;;;;;;;0.00;0.00;;;;;;;;;;5067528;28;20404;-68
2023/10/31 09:30:42;;;;;;;0.00;0.00;;;;;;;;;;5065894;28;20051;-67
2023/10/31 09:33:08;;;;;;;0.00;0.00;;;;;;;;;;5072295;28;20044;-67
2023/10/31 09:35:34;;;;;;;0.00;0.00;;;;;;;;;;5074500;28;20044;-67
2023/10/31 09:38:00;;;;;;;0.00;0.00;;;;;;;;;;5084455;27;20047;-67
2023/10/31 09:40:26;;;;;;;0.00;0.00;;;;;;;;;;5079029;28;20036;-67
2023/10/31 09:42:52;;;;;;;0.00;0.00;;;;;;;;;;5071841;28;20408;-67
2023/10/31 09:45:18;;;;;;;0.00;0.00;;;;;;;;;;5073020;28;20032;-66
2023/10/31 09:47:44;;;;;;;0.00;0.00;;;;;;;;;;5069214;28;20136;-67
2023/10/31 09:50:10;;;;;;;0.00;0.00;;;;;;;;;;5068314;28;20113;-67
2023/10/31 09:52:37;;;;;;;0.00;0.00;;;;;;;;;;5066585;28;20408;-66
2023/10/31 09:55:03;;;;;;;0.00;0.00;;;;;;;;;;5068149;28;20863;-67
2023/10/31 09:57:30;;;;;;;0.00;0.00;;;;;;;;;;5070370;28;20141;-69
2023/10/31 09:59:56;;;;;;;0.00;0.00;;;;;;;;;;5066723;28;20128;-69
2023/10/31 10:02:22;;;;;;;0.00;0.00;;;;;;;;;;5056137;28;20087;-69
2023/10/31 10:04:51;;;;;;;0.00;0.00;;;;;;;;;;5058872;28;20516;-68
2023/10/31 10:07:17;;;;;;;0.00;0.00;;;;;;;;;;5058145;28;20036;-71
2023/10/31 10:09:44;;;;;;;0.00;0.00;;;;;;;;;;5057011;28;20097;-68
2023/10/31 10:12:12;;;;;;;0.00;0.00;;;;;;;;;;5062826;28;20058;-69
2023/10/31 10:14:41;;;;;;;0.00;0.00;;;;;;;;;;5067778;28;20388;-69
2023/10/31 10:17:17;;;;;;;0.00;0.00;;;;;;;;;;5057677;28;20484;-69
2023/10/31 10:19:43;;;;;;;0.00;0.00;;;;;;;;;;5064577;28;20037;-69
2023/10/31 10:22:10;;;;;;;0.00;0.00;;;;;;;;;;5075564;28;20035;-70
2023/10/31 10:24:39;;;;;;;0.00;0.00;;;;;;;;;;5057690;28;20506;-69
2023/10/31 10:27:05;;;;;;;0.00;0.00;;;;;;;;;;5058050;28;20042;-69
2023/10/31 10:29:31;;;;;;;0.00;0.00;;;;;;;;;;5059769;28;20452;-69
2023/10/31 10:31:57;;;;;;;0.00;0.00;;;;;;;;;;5056100;28;20550;-69
2023/10/31 10:34:24;;;;;;;0.00;0.00;;;;;;;;;;5054235;28;20056;-69
2023/10/31 10:36:51;;;;;;;0.00;0.00;;;;;;;;;;5074926;28;20116;-69
2023/10/31 10:39:20;;;;;;;0.00;0.00;;;;;;;;;;5079404;28;20462;-69
2023/10/31 10:41:48;;;;;;;0.00;0.00;;;;;;;;;;5077712;28;20085;-69
2023/10/31 10:44:14;;;;;;;0.00;0.00;;;;;;;;;;5077548;28;20124;-70
2023/10/31 10:46:40;;;;;;;0.00;0.00;;;;;;;;;;5079819;28;20059;-69
2023/10/31 10:49:07;;;;;;;0.00;0.00;;;;;;;;;;5079301;28;20420;-69
2023/10/31 10:51:51;;;;;;;0.00;0.00;;;;;;;;;;5080950;28;20047;-69
2023/10/31 10:54:27;;;;;;;0.00;0.00;;;;;;;;;;5078926;28;20439;-69
2023/10/31 10:56:59;;;;;;;0.00;0.00;;;;;;;;;;5079027;28;20566;-69
2023/10/31 10:59:37;;;;;;;0.00;0.00;;;;;;;;;;5075529;28;20163;-69
2023/10/31 11:02:04;;;;;;;0.00;0.00;;;;;;;;;;5079799;28;20043;-69
2023/10/31 11:04:31;;;;;;;0.00;0.00;;;;;;;;;;5080368;28;20130;-70
2023/10/31 11:06:57;;;;;;;0.00;0.00;;;;;;;;;;5080555;28;20521;-69
2023/10/31 11:09:24;;;;;;;0.00;0.00;;;;;;;;;;5077608;28;20036;-69
2023/10/31 11:11:51;;;;;;;0.00;0.00;;;;;;;;;;5068036;28;20452;-70
2023/10/31 11:14:17;;;;;;;0.00;0.00;;;;;;;;;;5066210;28;20518;-70
2023/10/31 11:16:46;;;;;;;0.00;0.00;;;;;;;;;;5056985;28;20060;-70
2023/10/31 11:19:12;;;;;;;0.00;0.00;;;;;;;;;;5058610;28;20024;-69
2023/10/31 11:21:53;;;;;;;0.00;0.00;;;;;;;;;;5071473;27;20145;-69
2023/10/31 11:24:20;;;;;;;0.00;0.00;;;;;;;;;;5057928;28;20198;-71
2023/10/31 11:26:53;;;;;;;0.00;0.00;;;;;;;;;;5057078;28;20059;-69
2023/10/31 11:29:19;;;;;;;0.00;0.00;;;;;;;;;;5059267;28;20037;-70
2023/10/31 11:31:47;;;;;;;0.00;0.00;;;;;;;;;;5060184;28;20040;-70
2023/10/31 11:34:13;;;;;;;0.00;0.00;;;;;;;;;;5064190;28;20088;-69
2023/10/31 11:36:39;;;;;;;0.00;0.00;;;;;;;;;;5067635;28;20040;-70
2023/10/31 11:39:12;;;;;;;0.00;0.00;;;;;;;;;;5062511;28;20032;-71
2023/10/31 11:41:39;;;;;;;0.00;0.00;;;;;;;;;;5063475;28;20634;-69
2023/10/31 11:44:05;;;;;;;0.00;0.00;;;;;;;;;;5058039;28;20041;-70
2023/10/31 11:46:31;;;;;;;0.00;0.00;;;;;;;;;;5055711;28;20044;-70
2023/10/31 11:48:59;;;;;;;0.00;0.00;;;;;;;;;;5058375;28;20043;-69
2023/10/31 11:51:25;;;;;;;0.00;0.00;;;;;;;;;;5056367;28;20064;-69
2023/10/31 11:53:52;;;;;;;0.00;0.00;;;;;;;;;;5056537;28;20115;-70
2023/10/31 11:56:18;;;;;;;0.00;0.00;;;;;;;;;;5057943;28;20384;-70
2023/10/31 11:58:44;;;;;;;0.00;0.00;;;;;;;;;;5063398;28;20973;-69
2023/10/31 12:01:10;;;;;;;0.00;0.00;;;;;;;;;;5059732;28;20063;-69
2023/10/31 12:03:40;;;;;;;0.00;0.00;;;;;;;;;;5070169;28;20028;-69
2023/10/31 12:06:07;;;;;;;0.00;0.00;;;;;;;;;;5075150;28;20068;-70
2023/10/31 12:08:38;;;;;;;0.00;0.00;;;;;;;;;;5077309;28;20511;-69
2023/10/31 12:11:11;;;;;;;0.00;0.00;;;;;;;;;;5076799;28;20028;-71
2023/10/31 12:13:38;;;;;;;0.00;0.00;;;;;;;;;;5078763;28;20363;-70
2023/10/31 12:16:06;;;;;;;0.00;0.00;;;;;;;;;;5076461;28;20039;-70
2023/10/31 12:18:32;;;;;;;0.00;0.00;;;;;;;;;;5077136;28;20036;-67
2023/10/31 12:20:58;;;;;;;0.00;0.00;;;;;;;;;;5080846;28;20601;-67
2023/10/31 12:23:24;;;;;;;0.00;0.00;;;;;;;;;;5078296;28;20047;-67
2023/10/31 12:25:50;;;;;;;0.00;0.00;;;;;;;;;;5074364;28;20040;-67
2023/10/31 12:28:17;;;;;;;0.00;0.00;;;;;;;;;;5078957;28;20488;-70
2023/10/31 12:30:47;;;;;;;0.00;0.00;;;;;;;;;;5076665;28;20051;-70
2023/10/31 12:33:13;;;;;;;0.00;0.00;;;;;;;;;;5077544;28;20940;-71
2023/10/31 12:35:39;;;;;;;0.00;0.00;;;;;;;;;;5079322;28;20070;-71
2023/10/31 12:38:06;;;;;;;0.00;0.00;;;;;;;;;;5078848;28;20070;-67
2023/10/31 12:40:33;;;;;;;0.00;0.00;;;;;;;;;;5080465;28;20042;-67
2023/10/31 12:43:00;;;;;;;0.00;0.00;;;;;;;;;;5078879;28;20055;-67
2023/10/31 12:45:26;;;;;;;0.00;0.00;;;;;;;;;;5075627;28;20900;-67
2023/10/31 12:48:04;;;;;;;0.00;0.00;;;;;;;;;;5076432;28;20075;-67
2023/10/31 12:50:30;;;;;;;0.00;0.00;;;;;;;;;;5075279;28;20048;-67
2023/10/31 12:52:57;;;;;;;0.00;0.00;;;;;;;;;;5079030;28;20452;-67
2023/10/31 12:55:24;;;;;;;0.00;0.00;;;;;;;;;;5074114;28;20039;-67
2023/10/31 12:57:51;;;;;;;0.00;0.00;;;;;;;;;;5079293;28;20063;-67
2023/10/31 13:00:24;;;;;;;0.00;0.00;;;;;;;;;;5075669;28;20028;-67
2023/10/31 13:02:51;;;;;;;0.00;0.00;;;;;;;;;;5078603;28;20067;-67
2023/10/31 13:05:17;;;;;;;0.00;0.00;;;;;;;;;;5077244;28;20057;-67
2023/10/31 13:07:49;;;;;;;0.00;0.00;;;;;;;;;;5080036;28;20508;-67
2023/10/31 13:10:16;;;;;;;0.00;0.00;;;;;;;;;;5075430;28;20032;-66
2023/10/31 13:12:48;;;;;;;0.00;0.00;;;;;;;;;;5079158;28;20040;-67
2023/10/31 13:15:18;;;;;;;0.00;0.00;;;;;;;;;;5078898;28;20428;-66
2023/10/31 13:17:44;;;;;;;0.20;0.00;;;;;;;;;;5077577;28;20040;-67
2023/10/31 13:20:12;;;;;;;0.00;0.00;;;;;;;;;;5078688;28;20123;-67
2023/10/31 13:22:38;;;;;;;0.00;0.00;;;;;;;;;;5078647;28;20705;-67
2023/10/31 13:25:05;;;;;;;0.00;0.00;;;;;;;;;;5076346;28;20040;-67
2023/10/31 13:27:31;;;;;;;0.00;0.00;;;;;;;;;;5079380;28;20561;-67
2023/10/31 13:29:58;;;;;;;0.00;0.00;;;;;;;;;;5077258;28;20510;-67
2023/10/31 13:32:24;;;;;;;0.00;0.00;;;;;;;;;;5075220;28;20127;-67
2023/10/31 13:34:50;;;;;;;0.00;0.00;;;;;;;;;;5096362;28;20032;-67
2023/10/31 13:37:16;;;;;;;0.00;0.00;;;;;;;;;;5082360;28;20491;-67
2023/10/31 13:39:42;;;;;;;0.00;0.00;;;;;;;;;;5081397;28;20040;-70
2023/10/31 13:42:10;;;;;;;0.00;0.00;;;;;;;;;;5080808;28;20036;-70
2023/10/31 13:44:36;;;;;;;0.00;0.00;;;;;;;;;;5079956;28;20040;-70
2023/10/31 13:47:02;;;;;;;0.00;0.00;;;;;;;;;;5081590;28;20040;-69
2023/10/31 13:49:28;;;;;;;0.00;0.00;;;;;;;;;;5079102;28;20398;-68
2023/10/31 13:51:54;;;;;;;0.00;0.00;;;;;;;;;;5081456;28;20128;-69
2023/10/31 13:54:20;;;;;;;0.00;0.00;;;;;;;;;;5080287;28;20043;-68
2023/10/31 13:56:46;;;;;;;0.00;0.00;;;;;;;;;;5057968;28;20146;-68
2023/10/31 13:59:12;;;;;;;0.00;0.00;;;;;;;;;;5059099;28;20025;-70
2023/10/31 14:01:39;;;;;;;0.00;0.00;;;;;;;;;;5060901;28;20077;-69
2023/10/31 14:04:05;;;;;;;0.00;0.00;;;;;;;;;;5056265;28;20388;-69
2023/10/31 14:06:32;;;;;;;0.00;0.00;;;;;;;;;;5059308;28;20104;-69
2023/10/31 14:08:59;;;;;;;0.00;0.00;;;;;;;;;;5059759;28;20032;-69
2023/10/31 14:11:25;;;;;;;0.00;0.00;;;;;;;;;;5060233;28;20051;-70
2023/10/31 14:13:51;;;;;;;0.00;0.00;;;;;;;;;;5060451;28;20540;-69
2023/10/31 14:16:18;;;;;;;0.00;0.00;;;;;;;;;;5075809;28;20412;-69
2023/10/31 14:18:45;;;;;;;0.00;0.00;;;;;;;;;;5076677;28;20044;-69
2023/10/31 14:21:12;;;;;;;0.00;0.00;;;;;;;;;;5070267;28;20129;-69
2023/10/31 14:23:38;;;;;;;0.00;0.00;;;;;;;;;;5067601;28;20079;-69
2023/10/31 14:26:04;;;;;;;0.00;0.00;;;;;;;;;;5064565;28;20427;-69
2023/10/31 14:28:30;;;;;;;0.00;0.00;;;;;;;;;;5070035;28;20093;-69
2023/10/31 14:30:57;;;;;;;0.00;0.00;;;;;;;;;;5063957;28;20333;-68
2023/10/31 14:33:23;;;;;;;0.00;0.00;;;;;;;;;;5059876;28;20044;-69
2023/10/31 14:35:49;;;;;;;0.00;0.00;;;;;;;;;;5062047;28;20055;-69
2023/10/31 14:38:15;;;;;;;0.00;0.00;;;;;;;;;;5063473;28;20736;-69
2023/10/31 14:40:41;;;;;;;0.00;0.00;;;;;;;;;;5060683;28;20041;-70